createdAt,value
2022-11-18T00:01:14.309Z,97992.50
2022-11-18T00:03:42.047Z,98003.06
2022-11-18T00:06:13.746Z,98005.22
2022-11-18T00:08:40.833Z,98009.50
2022-11-18T00:11:46.797Z,98006.63
2022-11-18T00:14:20.720Z,98017.81
2022-11-18T00:16:54.261Z,98022.41
2022-11-18T00:19:25.391Z,98017.81
2022-11-18T00:21:52.781Z,98023.22
2022-11-18T00:24:20.880Z,98028.63
2022-11-18T00:26:48.291Z,98027.88
2022-11-18T00:29:16.666Z,98039.91
2022-11-18T00:31:43.976Z,98036.09
2022-11-18T00:34:16.812Z,98028.47
2022-11-18T00:36:45.866Z,98041.41
2022-11-18T00:39:15.880Z,98043.22
2022-11-18T00:42:01.237Z,98045.28
2022-11-18T00:44:28.123Z,98045.69
2022-11-18T00:46:55.534Z,98056.50
2022-11-18T00:49:22.827Z,98057.56
2022-11-18T00:51:49.619Z,98060.25
2022-11-18T00:54:16.642Z,98066.63
2022-11-18T00:56:43.796Z,98065.66
2022-11-18T00:59:10.559Z,98072.47
2022-11-18T01:01:37.549Z,98069.38
2022-11-18T01:04:04.708Z,98072.69
2022-11-18T01:06:31.786Z,98080.19
2022-11-18T01:08:58.558Z,98089.69
2022-11-18T01:11:44.300Z,98097.78
2022-11-18T01:14:11.168Z,98097.16
2022-11-18T01:16:38.129Z,98102.97
2022-11-18T01:19:04.961Z,98102.38
2022-11-18T01:21:31.749Z,98098.25
2022-11-18T01:23:58.558Z,98100.88
2022-11-18T01:26:25.427Z,98101.69
2022-11-18T01:28:57.755Z,98100.09
2022-11-18T01:31:24.956Z,98107.78
2022-11-18T01:33:52.394Z,98118.97
2022-11-18T01:36:22.923Z,98115.06
2022-11-18T01:38:50.832Z,98114.66
2022-11-18T01:41:20.107Z,98125.25
2022-11-18T01:43:55.547Z,98128.34
2022-11-18T01:46:25.201Z,98138.53
2022-11-18T01:49:14.649Z,98139.75
2022-11-18T01:51:55.677Z,98144.13
2022-11-18T01:54:37.707Z,98148.31
2022-11-18T01:57:12.810Z,98161.13
2022-11-18T01:59:42.822Z,98166.56
2022-11-18T02:02:14.018Z,98163.66
2022-11-18T02:04:50.441Z,98171.16
2022-11-18T02:07:17.851Z,98176.94
2022-11-18T02:09:44.968Z,98180.25
2022-11-18T02:12:12.617Z,98186.31
2022-11-18T02:14:44.336Z,98187.53
2022-11-18T02:18:02.151Z,98202.66
2022-11-18T02:20:33.238Z,98196.03
2022-11-18T02:23:52.427Z,98208.50
2022-11-18T02:26:59.299Z,98206.63
2022-11-18T02:30:12.726Z,98205.75
2022-11-18T02:32:57.039Z,98209.72
2022-11-18T02:35:43.871Z,98215.53
2022-11-18T02:38:24.963Z,98217.63
2022-11-18T02:41:01.481Z,98221.34
2022-11-18T02:43:41.272Z,98223.88
2022-11-18T02:46:13.680Z,98221.72
2022-11-18T02:48:48.903Z,98224.63
2022-11-18T02:51:25.825Z,98225.91
2022-11-18T02:53:57.438Z,98234.41
2022-11-18T02:56:27.190Z,98237.09
2022-11-18T02:58:54.015Z,98236.28
2022-11-18T03:01:27.468Z,98246.91
2022-11-18T03:03:54.616Z,98249.78
2022-11-18T03:06:45.653Z,98244.41
2022-11-18T03:09:35.614Z,98246.28
2022-11-18T03:12:19.093Z,98251.91
2022-11-18T03:15:19.457Z,98252.91
2022-11-18T03:18:01.190Z,98250.63
2022-11-18T03:20:31.152Z,98254.59
2022-11-18T03:23:10.130Z,98250.41
2022-11-18T03:25:56.468Z,98255.00
2022-11-18T03:28:40.760Z,98268.91
2022-11-18T03:31:34.126Z,98258.09
2022-11-18T03:34:15.271Z,98264.72
2022-11-18T03:36:51.766Z,98259.31
2022-11-18T03:39:22.261Z,98269.97
2022-11-18T03:41:56.377Z,98279.69
2022-11-18T03:44:34.893Z,98278.22
2022-11-18T03:47:10.870Z,98282.19
2022-11-18T03:49:53.415Z,98284.69
2022-11-18T03:52:26.632Z,98280.75
2022-11-18T03:54:57.824Z,98292.78
2022-11-18T03:57:45.718Z,98291.97
2022-11-18T04:00:16.011Z,98304.44
2022-11-18T04:02:44.183Z,98303.38
2022-11-18T04:05:13.379Z,98318.97
2022-11-18T04:08:00.201Z,98315.22
2022-11-18T04:10:47.129Z,98318.59
2022-11-18T04:13:31.650Z,98320.84
2022-11-18T04:15:58.606Z,98322.72
2022-11-18T04:18:25.461Z,98322.47
2022-11-18T04:20:52.384Z,98332.25
2022-11-18T04:23:19.472Z,98331.19
2022-11-18T04:25:46.425Z,98338.91
2022-11-18T04:28:13.306Z,98348.00
2022-11-18T04:30:40.091Z,98345.94
2022-11-18T04:33:06.907Z,98350.72
2022-11-18T04:35:33.708Z,98344.72
2022-11-18T04:38:00.556Z,98355.91
2022-11-18T04:40:27.328Z,98349.69
2022-11-18T04:42:54.118Z,98357.16
2022-11-18T04:45:20.927Z,98357.56
2022-11-18T04:47:48.067Z,98368.34
2022-11-18T04:50:14.995Z,98360.50
2022-11-18T04:52:42.043Z,98365.66
2022-11-18T04:55:09.156Z,98364.41
2022-11-18T04:57:35.938Z,98369.63
2022-11-18T05:00:02.918Z,98380.81
2022-11-18T05:02:29.789Z,98386.41
2022-11-18T05:04:56.560Z,98386.03
2022-11-18T05:07:23.367Z,98395.34
2022-11-18T05:09:50.203Z,98398.25
2022-11-18T05:12:35.648Z,98408.63
2022-11-18T05:15:02.475Z,98415.28
2022-11-18T05:17:29.341Z,98416.50
2022-11-18T05:19:56.324Z,98416.94
2022-11-18T05:22:23.125Z,98419.22
2022-11-18T05:24:49.876Z,98423.34
2022-11-18T05:27:16.898Z,98428.13
2022-11-18T05:29:44.015Z,98428.13
2022-11-18T05:32:11.226Z,98428.56
2022-11-18T05:34:40.936Z,98435.19
2022-11-18T05:37:08.166Z,98448.47
2022-11-18T05:39:35.011Z,98452.19
2022-11-18T05:42:21.148Z,98445.97
2022-11-18T05:44:49.860Z,98450.31
2022-11-18T05:47:19.975Z,98460.09
2022-11-18T05:49:46.769Z,98463.41
2022-11-18T05:52:13.611Z,98467.38
2022-11-18T05:54:46.940Z,98465.50
2022-11-18T05:57:13.697Z,98470.88
2022-11-18T05:59:40.455Z,98476.69
2022-11-18T06:02:15.971Z,98480.00
2022-11-18T06:04:49.639Z,98473.59
2022-11-18T06:07:29.402Z,98476.09
2022-11-18T06:10:05.017Z,98484.38
2022-11-18T06:12:42.197Z,98486.25
2022-11-18T06:15:34.900Z,98493.75
2022-11-18T06:18:09.601Z,98497.25
2022-11-18T06:20:40.332Z,98492.88
2022-11-18T06:23:07.231Z,98504.53
2022-11-18T06:25:34.558Z,98504.91
2022-11-18T06:28:02.867Z,98509.28
2022-11-18T06:30:29.664Z,98509.91
2022-11-18T06:32:56.517Z,98506.19
2022-11-18T06:35:23.393Z,98514.28
2022-11-18T06:37:50.224Z,98517.19
2022-11-18T06:40:17.503Z,98526.13
2022-11-18T06:43:03.007Z,98526.50
2022-11-18T06:45:30.429Z,98533.56
2022-11-18T06:47:58.914Z,98536.06
2022-11-18T06:50:25.831Z,98546.44
2022-11-18T06:52:53.324Z,98551.25
2022-11-18T06:55:20.627Z,98554.75
2022-11-18T06:57:47.488Z,98560.16
2022-11-18T07:00:15.478Z,98551.81
2022-11-18T07:02:42.246Z,98565.94
2022-11-18T07:05:09.165Z,98564.72
2022-11-18T07:07:40.502Z,98577.59
2022-11-18T07:10:09.635Z,98584.22
2022-11-18T07:12:36.423Z,98587.34
2022-11-18T07:15:03.516Z,98592.13
2022-11-18T07:17:31.637Z,98590.88
2022-11-18T07:19:58.495Z,98596.50
2022-11-18T07:22:25.235Z,98604.78
2022-11-18T07:24:52.015Z,98611.66
2022-11-18T07:27:18.812Z,98612.06
2022-11-18T07:29:45.951Z,98619.09
2022-11-18T07:32:12.774Z,98624.53
2022-11-18T07:34:39.568Z,98635.31
2022-11-18T07:37:06.382Z,98637.38
2022-11-18T07:39:33.167Z,98642.78
2022-11-18T07:41:59.949Z,98642.78
2022-11-18T07:44:26.727Z,98649.84
2022-11-18T07:46:53.527Z,98650.25
2022-11-18T07:49:20.705Z,98667.69
2022-11-18T07:51:47.678Z,98668.75
2022-11-18T07:54:17.264Z,98676.22
2022-11-18T07:56:44.355Z,98669.34
2022-11-18T07:59:11.158Z,98675.38
2022-11-18T08:01:38.364Z,98687.66
2022-11-18T08:04:11.909Z,98688.44
2022-11-18T08:06:39.911Z,98695.75
2022-11-18T08:09:08.289Z,98710.47
2022-11-18T08:11:35.949Z,98703.41
2022-11-18T08:14:02.802Z,98705.91
2022-11-18T08:16:29.883Z,98715.66
2022-11-18T08:18:59.836Z,98720.44
2022-11-18T08:21:26.647Z,98731.66
2022-11-18T08:23:57.294Z,98725.84
2022-11-18T08:26:25.295Z,98734.56
2022-11-18T08:28:52.284Z,98742.88
2022-11-18T08:31:24.485Z,98740.81
2022-11-18T08:34:01.045Z,98746.19
2022-11-18T08:36:31.158Z,98745.16
2022-11-18T08:39:00.400Z,98762.41
2022-11-18T08:41:39.949Z,98759.06
2022-11-18T08:44:09.940Z,98769.44
2022-11-18T08:46:36.742Z,98772.38
2022-11-18T08:49:04.048Z,98781.28
2022-11-18T08:51:31.026Z,98785.03
2022-11-18T08:53:58.147Z,98781.13
2022-11-18T08:56:26.264Z,98791.13
2022-11-18T08:58:54.559Z,98791.13
2022-11-18T09:01:21.714Z,98795.28
2022-11-18T09:03:49.422Z,98801.53
2022-11-18T09:06:22.831Z,98797.34
2022-11-18T09:08:49.664Z,98807.34
2022-11-18T09:11:23.766Z,98805.25
2022-11-18T09:16:49.654Z,98816.47
2022-11-18T09:19:45.487Z,98820.25
2022-11-18T09:22:05.410Z,98828.56
2022-11-18T09:24:32.936Z,98826.28
2022-11-18T09:27:04.884Z,98837.06
2022-11-18T09:29:32.778Z,98833.75
2022-11-18T09:32:02.190Z,98846.66
2022-11-18T09:34:29.584Z,98848.53
2022-11-18T09:36:56.910Z,98844.78
2022-11-18T09:39:25.539Z,98849.16
2022-11-18T09:42:23.508Z,98862.28
2022-11-18T09:45:44.281Z,98867.84
2022-11-18T09:48:20.513Z,98871.00
2022-11-18T09:50:50.143Z,98879.72
2022-11-18T09:53:25.489Z,98884.53
2022-11-18T09:55:53.938Z,98888.25
2022-11-18T09:58:36.225Z,98885.13
2022-11-18T10:01:09.043Z,98898.44
2022-11-18T10:03:37.302Z,98897.00
2022-11-18T10:06:10.961Z,98894.72
2022-11-18T10:09:08.850Z,98901.38
2022-11-18T10:11:58.495Z,98904.28
2022-11-18T10:14:43.762Z,98911.56
2022-11-18T10:17:46.956Z,98913.22
2022-11-18T10:20:33.368Z,98923.00
2022-11-18T10:23:17.642Z,98929.25
2022-11-18T10:25:44.757Z,98931.50
2022-11-18T10:28:23.105Z,98929.66
2022-11-18T10:30:50.540Z,98940.25
2022-11-18T10:33:21.650Z,98941.72
2022-11-18T10:35:50.548Z,98942.97
2022-11-18T10:38:21.265Z,98944.84
2022-11-18T10:40:51.267Z,98949.41
2022-11-18T10:43:55.167Z,98946.94
2022-11-18T10:46:39.403Z,98959.22
2022-11-18T10:49:09.236Z,98962.94
2022-11-18T10:51:39.164Z,98968.16
2022-11-18T10:54:21.615Z,98962.13
2022-11-18T10:56:58.478Z,98971.28
2022-11-18T10:59:47.342Z,98986.25
2022-11-18T11:02:41.848Z,98976.88
2022-11-18T11:05:23.806Z,98973.75
2022-11-18T11:08:37.579Z,98983.34
2022-11-18T11:11:04.912Z,98981.66
2022-11-18T11:13:32.876Z,98977.94
2022-11-18T11:16:04.174Z,98984.59
2022-11-18T11:18:42.687Z,98990.00
2022-11-18T11:21:19.177Z,99000.81
2022-11-18T11:23:47.311Z,98998.53
2022-11-18T11:29:37.799Z,99006.44
2022-11-18T11:32:38.438Z,99005.63
2022-11-18T11:35:23.622Z,99018.72
2022-11-18T11:38:01.303Z,99005.81
2022-11-18T11:40:55.741Z,99008.75
2022-11-18T11:43:51.082Z,99011.03
2022-11-18T11:46:29.952Z,99022.03
2022-11-18T11:49:41.478Z,99019.34
2022-11-18T11:52:23.585Z,99027.06
2022-11-18T11:55:15.203Z,99039.13
2022-11-18T11:58:15.398Z,99030.75
2022-11-18T12:01:10.227Z,99039.13
2022-11-18T12:03:51.708Z,99045.19
2022-11-18T12:06:19.498Z,99051.81
2022-11-18T12:09:16.419Z,99052.66
2022-11-18T12:12:04.358Z,99050.78
2022-11-18T12:14:51.000Z,99066.00
2022-11-18T12:17:37.433Z,99062.69
2022-11-18T12:20:42.692Z,99061.41
2022-11-18T12:23:13.372Z,99073.28
2022-11-18T12:25:55.041Z,99072.47
2022-11-18T12:28:37.389Z,99069.97
2022-11-18T12:31:16.503Z,99078.28
2022-11-18T12:33:49.074Z,99086.00
2022-11-18T12:36:46.013Z,99081.19
2022-11-18T12:39:25.444Z,99088.28
2022-11-18T12:42:14.389Z,99093.06
2022-11-18T12:44:43.401Z,99098.28
2022-11-18T12:47:12.997Z,99095.34
2022-11-18T12:49:45.845Z,99108.25
2022-11-18T12:52:31.043Z,99110.16
2022-11-18T12:55:25.672Z,99116.59
2022-11-18T12:57:52.693Z,99127.06
2022-11-18T13:00:31.355Z,99117.44
2022-11-18T13:03:01.638Z,99131.81
2022-11-18T13:05:35.032Z,99132.44
2022-11-18T13:08:15.072Z,99128.69
2022-11-18T13:11:26.840Z,99131.16
2022-11-18T13:14:14.816Z,99134.94
2022-11-18T13:17:02.650Z,99147.44
2022-11-18T13:19:29.430Z,99150.78
2022-11-18T13:22:17.228Z,99149.91
2022-11-18T13:24:52.743Z,99150.34
2022-11-18T13:27:51.726Z,99152.03
2022-11-18T13:30:18.715Z,99157.63
2022-11-18T13:32:47.813Z,99165.38
2022-11-18T13:35:22.262Z,99166.59
2022-11-18T13:37:51.900Z,99168.88
2022-11-18T13:40:22.544Z,99168.69
2022-11-18T13:42:50.354Z,99169.31
2022-11-18T13:45:18.159Z,99172.84
2022-11-18T13:48:09.636Z,99183.28
2022-11-18T13:50:43.821Z,99176.19
2022-11-18T13:53:38.430Z,99177.00
2022-11-18T13:56:12.776Z,99182.06
2022-11-18T14:01:38.837Z,99197.91
2022-11-18T14:04:15.557Z,99204.16
2022-11-18T14:06:42.557Z,99203.75
2022-11-18T14:09:15.939Z,99203.94
2022-11-18T14:12:01.256Z,99214.78
2022-11-18T14:14:37.778Z,99217.91
2022-11-18T14:17:26.549Z,99212.06
2022-11-18T14:20:01.401Z,99228.31
2022-11-18T14:22:33.676Z,99232.06
2022-11-18T14:25:14.742Z,99238.94
2022-11-18T14:27:50.654Z,99231.63
2022-11-18T14:30:24.555Z,99239.13
2022-11-18T14:33:06.574Z,99242.63
2022-11-18T14:35:35.132Z,99245.75
2022-11-18T14:41:13.389Z,99254.47
2022-11-18T14:43:40.897Z,99265.13
2022-11-18T14:46:19.778Z,99259.91
2022-11-18T14:48:46.776Z,99270.72
2022-11-18T14:51:17.491Z,99280.72
2022-11-18T14:53:45.136Z,99287.19
2022-11-18T14:56:33.132Z,99293.22
2022-11-18T14:59:00.010Z,99291.53
2022-11-18T15:01:31.061Z,99304.41
2022-11-18T15:03:58.256Z,99300.69
2022-11-18T15:06:25.170Z,99315.22
2022-11-18T15:08:53.502Z,99330.34
2022-11-18T15:11:20.636Z,99327.38
2022-11-18T15:13:47.907Z,99337.63
2022-11-18T15:16:17.629Z,99330.69
2022-11-18T15:18:47.954Z,99335.03
2022-11-18T15:21:15.115Z,99340.91
2022-11-18T15:23:42.576Z,99343.78
2022-11-18T15:26:43.957Z,99342.03
2022-11-18T15:29:23.528Z,99354.72
2022-11-18T15:31:51.630Z,99361.13
2022-11-18T15:34:20.891Z,99378.34
2022-11-18T15:36:48.415Z,99369.81
2022-11-18T15:39:15.714Z,99377.28
2022-11-18T15:41:43.251Z,99376.06
2022-11-18T15:44:13.400Z,99369.13
2022-11-18T15:46:40.679Z,99378.53
2022-11-18T15:49:13.176Z,99382.06
2022-11-18T15:51:40.436Z,99391.41
2022-11-18T15:54:07.218Z,99386.00
2022-11-18T15:56:34.590Z,99395.75
2022-11-18T15:59:04.255Z,99398.03
2022-11-18T16:01:36.559Z,99406.09
2022-11-18T16:04:05.897Z,99407.78
2022-11-18T16:06:33.450Z,99413.75
2022-11-18T16:09:00.865Z,99420.84
2022-11-18T16:11:48.073Z,99430.16
2022-11-18T16:14:18.374Z,99433.13
2022-11-18T16:16:47.992Z,99439.53
2022-11-18T16:19:18.471Z,99438.91
2022-11-18T16:21:55.334Z,99446.78
2022-11-18T16:24:28.798Z,99434.91
2022-11-18T16:26:56.247Z,99439.41
2022-11-18T16:29:24.320Z,99447.75
2022-11-18T16:31:53.127Z,99444.63
2022-11-18T16:34:28.297Z,99461.31
2022-11-18T16:37:01.369Z,99462.66
2022-11-18T16:39:29.530Z,99472.91
2022-11-18T16:42:08.508Z,99468.69
2022-11-18T16:44:37.021Z,99481.78
2022-11-18T16:47:10.528Z,99487.56
2022-11-18T16:49:41.597Z,99492.97
2022-11-18T16:52:09.325Z,99485.88
2022-11-18T16:54:42.933Z,99490.00
2022-11-18T16:57:12.090Z,99491.97
2022-11-18T16:59:38.844Z,99497.16
2022-11-18T17:02:06.748Z,99505.03
2022-11-18T17:04:36.383Z,99512.28
2022-11-18T17:07:03.513Z,99516.03
2022-11-18T17:09:30.806Z,99517.25
2022-11-18T17:12:01.313Z,99523.28
2022-11-18T17:14:29.655Z,99528.25
2022-11-18T17:16:57.712Z,99523.38
2022-11-18T17:19:25.801Z,99532.88
2022-11-18T17:21:53.009Z,99541.19
2022-11-18T17:24:22.658Z,99539.34
2022-11-18T17:26:51.205Z,99548.44
2022-11-18T17:29:18.707Z,99547.81
2022-11-18T17:31:45.789Z,99551.72
2022-11-18T17:34:14.761Z,99558.59
2022-11-18T17:36:42.578Z,99558.59
2022-11-18T17:39:11.767Z,99562.31
2022-11-18T17:41:57.569Z,99568.41
2022-11-18T17:44:24.946Z,99576.88
2022-11-18T17:46:52.403Z,99580.22
2022-11-18T17:49:21.443Z,99581.91
2022-11-18T17:51:51.652Z,99592.91
2022-11-18T17:54:19.168Z,99590.00
2022-11-18T17:56:47.536Z,99598.94
2022-11-18T17:59:16.025Z,99606.41
2022-11-18T18:01:43.116Z,99614.97
2022-11-18T18:04:10.885Z,99623.44
2022-11-18T18:06:37.682Z,99620.56
2022-11-18T18:09:04.781Z,99618.03
2022-11-18T18:11:31.620Z,99622.03
2022-11-18T18:14:13.541Z,99615.81
2022-11-18T18:16:49.986Z,99623.91
2022-11-18T18:19:22.814Z,99625.31
2022-11-18T18:21:50.085Z,99629.84
2022-11-18T18:24:19.832Z,99632.19
2022-11-18T18:26:47.529Z,99635.94
2022-11-18T18:29:14.482Z,99644.56
2022-11-18T18:31:41.408Z,99652.03
2022-11-18T18:34:08.819Z,99661.69
2022-11-18T18:36:35.726Z,99662.00
2022-11-18T18:39:02.771Z,99668.41
2022-11-18T18:41:30.450Z,99666.75
2022-11-18T18:43:57.437Z,99675.69
2022-11-18T18:46:30.464Z,99681.91
2022-11-18T18:49:10.227Z,99690.94
2022-11-18T18:51:42.317Z,99705.47
2022-11-18T18:54:14.854Z,99691.59
2022-11-18T18:56:42.469Z,99700.53
2022-11-18T18:59:10.399Z,99705.47
2022-11-18T19:01:39.956Z,99709.50
2022-11-18T19:04:10.449Z,99705.97
2022-11-18T19:06:59.377Z,99707.19
2022-11-18T19:09:26.542Z,99714.81
2022-11-18T19:12:12.340Z,99712.28
2022-11-18T19:14:39.300Z,99723.91
2022-11-18T19:17:10.567Z,99724.94
2022-11-18T19:19:59.040Z,99723.91
2022-11-18T19:22:26.311Z,99736.75
2022-11-18T19:24:53.933Z,99740.84
2022-11-18T19:27:21.865Z,99741.31
2022-11-18T19:29:49.408Z,99740.00
2022-11-18T19:32:16.485Z,99738.13
2022-11-18T19:34:43.330Z,99753.34
2022-11-18T19:37:10.121Z,99756.38
2022-11-18T19:39:38.686Z,99755.00
2022-11-18T19:42:05.976Z,99754.50
2022-11-18T19:44:33.120Z,99773.25
2022-11-18T19:46:59.871Z,99774.28
2022-11-18T19:49:26.671Z,99770.88
2022-11-18T19:51:53.608Z,99776.59
2022-11-18T19:54:20.903Z,99786.06
2022-11-18T19:56:48.010Z,99784.09
2022-11-18T19:59:14.783Z,99793.53
2022-11-18T20:01:41.818Z,99802.44
2022-11-18T20:04:09.283Z,99795.56
2022-11-18T20:06:37.157Z,99809.72
2022-11-18T20:09:08.350Z,99808.41
2022-11-18T20:11:35.389Z,99811.09
2022-11-18T20:14:02.458Z,99816.53
2022-11-18T20:16:29.315Z,99816.84
2022-11-18T20:19:06.333Z,99819.22
2022-11-18T20:21:34.882Z,99815.84
2022-11-18T20:24:04.822Z,99820.25
2022-11-18T20:26:34.790Z,99819.94
2022-11-18T20:29:02.422Z,99823.34
2022-11-18T20:31:29.898Z,99825.38
2022-11-18T20:33:57.243Z,99825.22
2022-11-18T20:36:33.002Z,99829.78
2022-11-18T20:39:07.489Z,99831.84
2022-11-18T20:41:36.631Z,99836.72
2022-11-18T20:44:04.264Z,99829.50
2022-11-18T20:46:31.372Z,99826.81
2022-11-18T20:48:58.267Z,99827.81
2022-11-18T20:51:28.022Z,99843.72
2022-11-18T20:53:57.772Z,99842.53
2022-11-18T20:56:27.455Z,99848.09
2022-11-18T20:58:56.259Z,99857.00
2022-11-18T21:01:26.993Z,99860.38
2022-11-18T21:04:01.762Z,99864.63
2022-11-18T21:06:31.559Z,99865.16
2022-11-18T21:09:01.450Z,99862.94
2022-11-18T21:11:29.372Z,99873.25
2022-11-18T21:14:21.614Z,99864.97
2022-11-18T21:16:51.728Z,99872.06
2022-11-18T21:19:19.060Z,99886.56
2022-11-18T21:21:45.981Z,99884.38
2022-11-18T21:24:15.903Z,99884.53
2022-11-18T21:26:44.654Z,99891.44
2022-11-18T21:29:13.930Z,99895.88
2022-11-18T21:31:41.541Z,99907.81
2022-11-18T21:34:10.607Z,99896.00
2022-11-18T21:36:44.815Z,99900.41
2022-11-18T21:39:14.618Z,99913.88
2022-11-18T21:41:41.429Z,99918.25
2022-11-18T21:44:10.956Z,99919.09
2022-11-18T21:46:40.512Z,99924.16
2022-11-18T21:49:08.417Z,99921.97
2022-11-18T21:51:36.447Z,99928.69
2022-11-18T21:54:04.302Z,99932.75
2022-11-18T21:56:32.172Z,99937.47
2022-11-18T21:59:01.681Z,99945.56
2022-11-18T22:01:31.845Z,99951.97
2022-11-18T22:04:01.314Z,99953.28
2022-11-18T22:06:31.666Z,99955.81
2022-11-18T22:08:58.947Z,99962.91
2022-11-18T22:11:26.116Z,99961.72
2022-11-18T22:13:53.710Z,99960.06
2022-11-18T22:16:23.576Z,99962.56
2022-11-18T22:18:58.808Z,99964.78
2022-11-18T22:21:27.117Z,99959.72
2022-11-18T22:23:58.126Z,99963.75
2022-11-18T22:26:25.101Z,99955.69
2022-11-18T22:28:57.754Z,99970.50
2022-11-18T22:31:27.080Z,99979.91
2022-11-18T22:33:55.709Z,99976.91
2022-11-18T22:36:25.775Z,99980.94
2022-11-18T22:38:53.830Z,99987.31
2022-11-18T22:41:42.565Z,99992.72
2022-11-18T22:44:11.037Z,99989.84
2022-11-18T22:46:39.809Z,99992.56
2022-11-18T22:49:08.378Z,99993.38
2022-11-18T22:51:36.955Z,99996.75
2022-11-18T22:54:36.574Z,99993.34
2022-11-18T22:56:54.236Z,99987.78
2022-11-18T22:59:21.555Z,99999.22
2022-11-18T23:01:51.788Z,99997.38
2022-11-18T23:04:18.868Z,100010.16
2022-11-18T23:06:45.661Z,100006.94
2022-11-18T23:09:12.610Z,100017.03
2022-11-18T23:11:57.891Z,100031.34
2022-11-18T23:14:24.735Z,100034.69
2022-11-18T23:16:51.523Z,100035.75
2022-11-18T23:19:19.064Z,100035.06
2022-11-18T23:21:46.487Z,100035.75
2022-11-18T23:24:19.335Z,100028.78
2022-11-18T23:26:47.462Z,100033.69
2022-11-18T23:29:16.001Z,100047.63
2022-11-18T23:31:45.014Z,100047.78
2022-11-18T23:34:14.498Z,100046.28
2022-11-18T23:36:42.380Z,100051.50
2022-11-18T23:39:09.483Z,100058.88
2022-11-18T23:41:36.799Z,100063.28
2022-11-18T23:44:05.017Z,100061.38
2022-11-18T23:46:32.350Z,100075.84
2022-11-18T23:48:59.210Z,100083.59
2022-11-18T23:51:26.674Z,100081.91
2022-11-18T23:53:57.581Z,100086.97
2022-11-18T23:56:27.172Z,100082.13
2022-11-18T23:58:55.987Z,100087.50
